Aérodrome :
LOGIN :

S'inscrire | Disclaimer

   EN    FR    IT 

 










Légende :    VFR   VFR Marginal   IFR   IFR Intensif   IFR Très Intensif
Visi : 
Plafond : 
>= 8 km
>= 3000ft
5 à 8 km
1000 à 3000 ft
1500m à 5 km
500 à 1000 ft
800 à 1500m
200 à 500 ft
< 800m
< 200 ft
Symboles :   Orages  Brouillard  Fortes neiges  Fortes précipitations  Vent > 20 kt
SIGMETs :   Divers  Orages  Givrage  Turbulence  Onde Orograph.  Cendres Volcan.







- Altitude de l'aérodrome : 194 ft
- Code IATA : IEG


EPZG - Zielona Gora Babimost

DERNIER METAR :
  • 170130Z 20002KT 0200 R24/0275N FG NSC 08/08 Q1023

METARs EXPIRÉS :
  • 170100Z 23002KT 0500 R24/0650N FG NSC 09/09 Q1023
  • 170030Z 24002KT 0900 R24/2000 FG NSC 09/09 Q1023
  • 170000Z 22002KT 0400 R24/0200N FG NSC 10/10 Q1023
  • 162330Z 18003KT 0500 R24/0200N FG NSC 10/09 Q1023
  • 162300Z 20002KT 0700 R24/0450 FG NSC 10/09 Q1023

TAF TAF EPZG
Valide du 17 à 00h jusqu'au 17 à 09h UTC


162330Z 1700/1709 VRB02KT 0800 FG NSC
TEMPO 1700/1707 0100 FG
BECMG 1707/1709 23010KT CAVOK
Pas de NOTAMs connus pour ce terrain.



MET'MAP, la Météo Aéronautique d'un coup d'oeil ! - Copyright ORBIFLY Décembre 2007 - Disclaimer

ORBIFLY MET'MAP TEAM :

Programmation & Développement : Alexandra Zaïnal
Conception & Développement : Baudouin d'Aumeries
Co-Programmation & Développement : Marc-Olivier Méhu
Soutien technique & logistique : Manuel Goepfert

Contact : metmap@orbifly.com




SOURCES & CREDITS :

   NOAA